Neptune Thalassa — SVBZ1 — position and weather

sailwx.info

Track history (hours):
 
Tides and Currents Weather Stations Pressure Air Temp Water Temp Dewpoint Dewpoint Depression Visibility Wind Speed Wind Dir Waves Ship Positions

Neptune Thalassa

Last reported at 2017-Oct-22 21:31 UTC. Time now 2017-Oct-23 02:43 UTC.
Position N 39°42' E 025°42'.

Length 170 m; draft 8.3 m.

Type: Cargo ship. MMSI: 241319000.

Date/timePositionNaut miles runAvg speedWind from/ knotsBaromVisibWave heightAir tempDewpointWater temp
2017-Oct-22 21:31N 39°42' E 025°42'016.1
2017-Oct-22 21:30N 39°42' E 025°42'15713.8
2017-Oct-22 10:07N 40°26' E 029°00'4 9.8
2017-Oct-22 09:45N 40°25' E 029°05'0 1.2
2017-Oct-22 09:29N 40°25' E 029°05'0 0.0
2017-Oct-22 08:47N 40°25' E 029°05'0 0.0
2017-Oct-22 07:53N 40°25' E 029°05'0 0.0
2017-Oct-22 07:29N 40°25' E 029°05'0 0.0
2017-Oct-22 06:59N 40°25' E 029°05'0 0.0
2017-Oct-22 06:17N 40°25' E 029°05'0 0.0
2017-Oct-22 05:53N 40°25' E 029°05'0 0.0
2017-Oct-22 05:29N 40°25' E 029°05'0 0.0
2017-Oct-22 04:59N 40°25' E 029°05'0 0.0
2017-Oct-22 04:29N 40°25' E 029°05'0 0.0
2017-Oct-22 03:41N 40°25' E 029°05'0 0.0
2017-Oct-22 03:29N 40°25' E 029°05'0 0.0
2017-Oct-22 02:53N 40°25' E 029°05'0 0.0
2017-Oct-22 02:29N 40°25' E 029°05'0 0.0
2017-Oct-22 01:17N 40°25' E 029°05'0 0.0
2017-Oct-22 00:59N 40°25' E 029°05'0 0.0
2017-Oct-22 00:29N 40°25' E 029°05'0 0.0
2017-Oct-21 23:53N 40°25' E 029°05'0 0.0
2017-Oct-21 23:23N 40°25' E 029°05'0 0.0
2017-Oct-21 22:53N 40°25' E 029°05'0 0.0
2017-Oct-21 22:11N 40°25' E 029°05'0 0.0
2017-Oct-21 21:59N 40°25' E 029°05'0 0.0
2017-Oct-21 21:23N 40°25' E 029°05'0 0.0
2017-Oct-21 20:54N 40°25' E 029°05'1 1.6
2017-Oct-21 20:25N 40°25' E 029°04'1610.5
2017-Oct-21 18:51N 40°32' E 028°45'1115.7
2017-Oct-21 18:09N 40°39' E 028°56'216.3
2017-Oct-21 18:00N 40°40' E 028°59'816.3
2017-Oct-21 17:30N 40°42' E 029°09'815.0
2017-Oct-21 17:00N 40°44' E 029°19'611.1
2017-Oct-21 16:29N 40°45' E 029°27'1212.6
2017-Oct-21 15:32N 40°44' E 029°42'115.0
2017-Oct-21 15:30N 40°44' E 029°43'  
2017-Oct-18 21:07N 40°44' E 029°24'111.8
2017-Oct-18 21:00N 40°43' E 029°22'5 9.6
2017-Oct-18 20:30N 40°43' E 029°16'714.2
2017-Oct-18 20:00N 40°42' E 029°07'5 1.3
2017-Oct-18 16:16N 40°44' E 029°01'0 1.2
2017-Oct-18 16:00N 40°44' E 029°01'1 1.2
2017-Oct-18 15:31N 40°45' E 029°02'14511.7
2017-Oct-18 03:10N 39°59' E 026°02'214.0
2017-Oct-18 03:00N 39°58' E 025°60'16515.3
2017-Oct-17 16:12N 37°35' E 024°11'17511.4
2017-Oct-17 00:52N 37°52' E 020°31'617.7
2017-Oct-17 00:31N 37°58' E 020°27'917.5
2017-Oct-17 00:01N 38°05' E 020°22'917.4
2017-Oct-16 23:31N 38°13' E 020°16'917.2
2017-Oct-16 23:00N 38°20' E 020°10'917.4
2017-Oct-16 22:30N 38°27' E 020°04'1017.3
2017-Oct-16 21:56N 38°36' E 019°57'717.2
2017-Oct-16 21:30N 38°42' E 019°52'917.5
2017-Oct-16 20:58N 38°50' E 019°46'1617.5
2017-Oct-16 20:02N 39°04' E 019°34'118.0
2017-Oct-16 20:00N 39°04' E 019°34'917.5
2017-Oct-16 19:31N 39°11' E 019°28'917.4
2017-Oct-16 19:00N 39°19' E 019°22'3117.7
2017-Oct-16 17:16N 39°45' E 019°01'517.8
2017-Oct-16 17:00N 39°49' E 018°58'917.9
2017-Oct-16 16:29N 39°57' E 018°51'2218.0
2017-Oct-16 15:18N 40°15' E 018°35'15117.9
2017-Oct-16 06:50N 42°07' E 016°20'8117.5
2017-Oct-16 02:12N 43°08' E 015°08'417.6
2017-Oct-16 01:58N 43°11' E 015°05'1917.6
2017-Oct-16 00:55N 43°26' E 014°49'717.4
2017-Oct-16 00:29N 43°32' E 014°43'817.4
2017-Oct-16 00:00N 43°38' E 014°36'917.4
2017-Oct-15 23:29N 43°45' E 014°28'917.3
2017-Oct-15 22:59N 43°52' E 014°20'917.4
2017-Oct-15 22:26N 43°59' E 014°11'817.5
2017-Oct-15 22:01N 44°05' E 014°05'917.4
2017-Oct-15 21:30N 44°12' E 013°57'917.6
2017-Oct-15 21:00N 44°19' E 013°51'917.6
2017-Oct-15 20:31N 44°27' E 013°44'917.5
2017-Oct-15 20:00N 44°34' E 013°37'917.5
2017-Oct-15 19:30N 44°41' E 013°30'917.6
2017-Oct-15 19:00N 44°48' E 013°23'917.4
2017-Oct-15 18:30N 44°56' E 013°17'917.2
2017-Oct-15 18:00N 45°03' E 013°10'917.0
2017-Oct-15 17:30N 45°11' E 013°05'917.1
2017-Oct-15 17:00N 45°19' E 013°03'815.8
2017-Oct-15 16:30N 45°26' E 013°08'817.1
2017-Oct-15 16:01N 45°32' E 013°17'816.7
2017-Oct-15 15:30N 45°36' E 013°28'714.3
2017-Oct-15 14:59N 45°36' E 013°38'5 5.3
2017-Oct-15 14:00N 45°33' E 013°44'0 0.0
2017-Oct-15 13:30N 45°33' E 013°44'0 0.0
2017-Oct-15 12:57N 45°33' E 013°44'0 0.0
2017-Oct-15 12:27N 45°33' E 013°44'0 0.0
2017-Oct-15 11:48N 45°33' E 013°44'0 0.0
2017-Oct-15 11:27N 45°33' E 013°44'0 0.0
2017-Oct-15 10:57N 45°33' E 013°44'0 0.0
2017-Oct-15 10:30N 45°33' E 013°44'0 0.0
2017-Oct-15 10:00N 45°33' E 013°44'0 0.0
2017-Oct-15 09:24N 45°33' E 013°44'0 0.0
2017-Oct-15 08:57N 45°33' E 013°44'0 0.0
2017-Oct-15 08:27N 45°33' E 013°44'0 0.0
2017-Oct-15 08:00N 45°33' E 013°44'0 0.0
2017-Oct-15 07:30N 45°33' E 013°44'0 0.0
2017-Oct-15 06:54N 45°33' E 013°44'0 0.0
2017-Oct-15 06:24N 45°33' E 013°44'0 0.0
2017-Oct-15 05:57N 45°33' E 013°44'0 0.0
2017-Oct-15 05:27N 45°33' E 013°44'0 0.0
2017-Oct-15 04:54N 45°33' E 013°44'0 0.0
2017-Oct-15 04:30N 45°33' E 013°44'0 0.0
2017-Oct-15 04:00N 45°33' E 013°44'0 0.0
2017-Oct-15 03:27N 45°33' E 013°44'0 0.0
2017-Oct-15 03:00N 45°33' E 013°44'0 0.0
2017-Oct-15 02:27N 45°33' E 013°44'0 0.0
2017-Oct-15 02:00N 45°33' E 013°44'0 0.0
2017-Oct-15 01:30N 45°33' E 013°44'0 0.0
2017-Oct-15 00:54N 45°33' E 013°44'0 0.0
2017-Oct-15 00:30N 45°33' E 013°44'0 0.0
2017-Oct-14 23:57N 45°33' E 013°44'0 0.0
2017-Oct-14 23:24N 45°33' E 013°44'0 0.0
2017-Oct-14 22:57N 45°33' E 013°44'0 0.0
2017-Oct-14 22:24N 45°33' E 013°44'0 0.0
2017-Oct-14 22:00N 45°33' E 013°44'0 0.0
2017-Oct-14 21:30N 45°33' E 013°44'0 0.0
2017-Oct-14 21:00N 45°33' E 013°44'0 0.0
2017-Oct-14 20:24N 45°33' E 013°44'0 0.0
2017-Oct-14 19:42N 45°33' E 013°44'0 0.0
2017-Oct-14 19:24N 45°33' E 013°44'0 0.0
2017-Oct-14 18:57N 45°33' E 013°44'0 0.0
2017-Oct-14 18:27N 45°33' E 013°44'0 0.0
2017-Oct-14 17:51N 45°33' E 013°44'0 0.0
2017-Oct-14 17:18N 45°33' E 013°44'0 0.0
2017-Oct-14 16:57N 45°33' E 013°44'0 0.0
2017-Oct-14 16:30N 45°33' E 013°44'0 0.0
2017-Oct-14 16:00N 45°33' E 013°44'0 0.0
2017-Oct-14 15:27N 45°33' E 013°44'0 0.0
2017-Oct-14 14:57N 45°33' E 013°44'0 0.0
2017-Oct-14 14:27N 45°33' E 013°44'0 0.0
2017-Oct-14 14:00N 45°33' E 013°44'0 0.0
2017-Oct-14 13:30N 45°33' E 013°44'0 0.0
2017-Oct-14 13:00N 45°33' E 013°44'0 0.0
2017-Oct-14 12:30N 45°33' E 013°44'0 0.0
2017-Oct-14 12:00N 45°33' E 013°44'0 0.0
2017-Oct-14 11:27N 45°33' E 013°44'0 0.0
2017-Oct-14 10:57N 45°33' E 013°44'0 0.0
2017-Oct-14 10:27N 45°33' E 013°44'0 0.0
2017-Oct-14 10:00N 45°33' E 013°44'0 0.0
2017-Oct-14 09:21N 45°33' E 013°44'0 0.0
2017-Oct-14 09:00N 45°33' E 013°44'0 0.0
2017-Oct-14 08:30N 45°33' E 013°44'0 0.0
2017-Oct-14 08:00N 45°33' E 013°44'0 0.0
2017-Oct-14 07:30N 45°33' E 013°44'0 0.0
2017-Oct-14 07:00N 45°33' E 013°44'0 0.0
2017-Oct-14 06:30N 45°33' E 013°44'0 0.0
2017-Oct-14 06:00N 45°33' E 013°44'0 0.0
2017-Oct-14 05:27N 45°33' E 013°44'0 0.0
2017-Oct-14 05:00N 45°33' E 013°44'0 0.0
2017-Oct-14 04:30N 45°33' E 013°44'0 0.0
2017-Oct-14 04:00N 45°33' E 013°44'0 0.0
2017-Oct-14 03:30N 45°33' E 013°44'0 0.0
2017-Oct-14 02:57N 45°33' E 013°44'0 0.0
2017-Oct-14 02:21N 45°33' E 013°44'0 0.0
2017-Oct-14 01:57N 45°33' E 013°44'0 0.0
2017-Oct-14 01:24N 45°33' E 013°44'0 0.0
2017-Oct-14 00:45N 45°33' E 013°44'0 0.0
2017-Oct-14 00:30N 45°33' E 013°44'0 0.0
2017-Oct-13 23:57N 45°33' E 013°44'0 0.0
2017-Oct-13 23:30N 45°33' E 013°44'0 0.0
2017-Oct-13 22:57N 45°33' E 013°44'0 0.0
2017-Oct-13 22:27N 45°33' E 013°44'0 0.0
2017-Oct-13 22:00N 45°33' E 013°44'0 0.0
2017-Oct-13 21:30N 45°33' E 013°44'0 0.0
2017-Oct-13 21:00N 45°33' E 013°44'0 0.0
2017-Oct-13 20:30N 45°33' E 013°44'0 0.0
2017-Oct-13 19:57N 45°33' E 013°44'0 0.0
2017-Oct-13 19:30N 45°33' E 013°44'0 0.0
2017-Oct-13 19:00N 45°33' E 013°44'0 0.0
2017-Oct-13 18:27N 45°33' E 013°44'0 0.0
2017-Oct-13 18:00N 45°33' E 013°44'0 0.0
2017-Oct-13 17:27N 45°33' E 013°44'0 0.0
2017-Oct-13 16:57N 45°33' E 013°44'0 0.0
2017-Oct-13 16:18N 45°33' E 013°44'0 0.0
2017-Oct-13 16:00N 45°33' E 013°44'0 0.0
2017-Oct-13 15:30N 45°33' E 013°44'0 0.0
2017-Oct-13 15:00N 45°33' E 013°44'0 0.0
2017-Oct-13 14:30N 45°33' E 013°44'0 0.0
2017-Oct-13 14:00N 45°33' E 013°44'0 0.0
2017-Oct-13 13:30N 45°33' E 013°44'0 0.0
2017-Oct-13 13:00N 45°33' E 013°44'0 0.0
2017-Oct-13 12:30N 45°33' E 013°44'0 0.0
2017-Oct-13 11:57N 45°33' E 013°44'0 0.0
2017-Oct-13 11:30N 45°33' E 013°44'0 0.0
2017-Oct-13 11:00N 45°33' E 013°44'0 0.0
2017-Oct-13 10:30N 45°33' E 013°44'0 0.0
2017-Oct-13 10:00N 45°33' E 013°44'0 0.0
2017-Oct-13 09:30N 45°33' E 013°44'0 0.0
2017-Oct-13 09:00N 45°33' E 013°44'0 0.0
2017-Oct-13 08:30N 45°33' E 013°44'0 0.0
2017-Oct-13 07:54N 45°33' E 013°44'0 0.0
2017-Oct-13 07:27N 45°33' E 013°44'0 0.0
2017-Oct-13 06:57N 45°33' E 013°44'0 0.0
2017-Oct-13 06:30N 45°33' E 013°44'0 0.0
2017-Oct-13 05:54N 45°33' E 013°44'0 0.0
2017-Oct-13 05:27N 45°33' E 013°44'0 0.0
2017-Oct-13 05:00N 45°33' E 013°44'0 0.3
2017-Oct-13 04:31N 45°33' E 013°44'2 4.5
2017-Oct-13 04:00N 45°34' E 013°41'611.6
2017-Oct-13 03:30N 45°35' E 013°33'713.8
2017-Oct-13 03:01N 45°32' E 013°24'713.9
2017-Oct-13 02:30N 45°29' E 013°14'713.8
2017-Oct-13 02:00N 45°27' E 013°05'713.7
2017-Oct-13 01:30N 45°24' E 012°56'713.7
2017-Oct-13 01:00N 45°21' E 012°47'713.2
2017-Oct-13 00:30N 45°18' E 012°39'613.0
2017-Oct-13 00:00N 45°14' E 012°32'612.8
2017-Oct-12 23:30N 45°18' E 012°24'510.3
2017-Oct-12 23:00N 45°20' E 012°18'4 7.8
2017-Oct-12 22:30N 45°24' E 012°16'1 2.8
2017-Oct-12 21:59N 45°26' E 012°15'  
Track history (hours):
 
Tides and Currents Weather Stations Pressure Air Temp Water Temp Dewpoint Dewpoint Depression Visibility Wind Speed Wind Dir Waves Ship Positions

Neptune Thalassa

Last reported at 2017-Oct-22 21:31 UTC. Time now 2017-Oct-23 02:43 UTC.
Position N 39°42' E 025°42'.

Length 170 m; draft 8.3 m.

Type: Cargo ship. MMSI: 241319000.

Date/timePositionNaut miles runAvg speedWind from/ knotsBaromVisibWave heightAir tempDewpointWater temp
2017-Oct-22 21:31N 39°42' E 025°42'016.1
2017-Oct-22 21:30N 39°42' E 025°42'15713.8
2017-Oct-22 10:07N 40°26' E 029°00'4 9.8
2017-Oct-22 09:45N 40°25' E 029°05'0 1.2
2017-Oct-22 09:29N 40°25' E 029°05'0 0.0
2017-Oct-22 08:47N 40°25' E 029°05'0 0.0
2017-Oct-22 07:53N 40°25' E 029°05'0 0.0
2017-Oct-22 07:29N 40°25' E 029°05'0 0.0
2017-Oct-22 06:59N 40°25' E 029°05'0 0.0
2017-Oct-22 06:17N 40°25' E 029°05'0 0.0
2017-Oct-22 05:53N 40°25' E 029°05'0 0.0
2017-Oct-22 05:29N 40°25' E 029°05'0 0.0
2017-Oct-22 04:59N 40°25' E 029°05'0 0.0
2017-Oct-22 04:29N 40°25' E 029°05'0 0.0
2017-Oct-22 03:41N 40°25' E 029°05'0 0.0
2017-Oct-22 03:29N 40°25' E 029°05'0 0.0
2017-Oct-22 02:53N 40°25' E 029°05'0 0.0
2017-Oct-22 02:29N 40°25' E 029°05'0 0.0
2017-Oct-22 01:17N 40°25' E 029°05'0 0.0
2017-Oct-22 00:59N 40°25' E 029°05'0 0.0
2017-Oct-22 00:29N 40°25' E 029°05'0 0.0
2017-Oct-21 23:53N 40°25' E 029°05'0 0.0
2017-Oct-21 23:23N 40°25' E 029°05'0 0.0
2017-Oct-21 22:53N 40°25' E 029°05'0 0.0
2017-Oct-21 22:11N 40°25' E 029°05'0 0.0
2017-Oct-21 21:59N 40°25' E 029°05'0 0.0
2017-Oct-21 21:23N 40°25' E 029°05'0 0.0
2017-Oct-21 20:54N 40°25' E 029°05'1 1.6
2017-Oct-21 20:25N 40°25' E 029°04'1610.5
2017-Oct-21 18:51N 40°32' E 028°45'1115.7
2017-Oct-21 18:09N 40°39' E 028°56'216.3
2017-Oct-21 18:00N 40°40' E 028°59'816.3
2017-Oct-21 17:30N 40°42' E 029°09'815.0
2017-Oct-21 17:00N 40°44' E 029°19'611.1
2017-Oct-21 16:29N 40°45' E 029°27'1212.6
2017-Oct-21 15:32N 40°44' E 029°42'115.0
2017-Oct-21 15:30N 40°44' E 029°43'  
2017-Oct-18 21:07N 40°44' E 029°24'111.8
2017-Oct-18 21:00N 40°43' E 029°22'5 9.6
2017-Oct-18 20:30N 40°43' E 029°16'714.2
2017-Oct-18 20:00N 40°42' E 029°07'5 1.3
2017-Oct-18 16:16N 40°44' E 029°01'0 1.2
2017-Oct-18 16:00N 40°44' E 029°01'1 1.2
2017-Oct-18 15:31N 40°45' E 029°02'14511.7
2017-Oct-18 03:10N 39°59' E 026°02'214.0
2017-Oct-18 03:00N 39°58' E 025°60'16515.3
2017-Oct-17 16:12N 37°35' E 024°11'17511.4
2017-Oct-17 00:52N 37°52' E 020°31'617.7
2017-Oct-17 00:31N 37°58' E 020°27'917.5
2017-Oct-17 00:01N 38°05' E 020°22'917.4
2017-Oct-16 23:31N 38°13' E 020°16'917.2
2017-Oct-16 23:00N 38°20' E 020°10'917.4
2017-Oct-16 22:30N 38°27' E 020°04'1017.3
2017-Oct-16 21:56N 38°36' E 019°57'717.2
2017-Oct-16 21:30N 38°42' E 019°52'917.5
2017-Oct-16 20:58N 38°50' E 019°46'1617.5
2017-Oct-16 20:02N 39°04' E 019°34'118.0
2017-Oct-16 20:00N 39°04' E 019°34'917.5
2017-Oct-16 19:31N 39°11' E 019°28'917.4
2017-Oct-16 19:00N 39°19' E 019°22'3117.7
2017-Oct-16 17:16N 39°45' E 019°01'517.8
2017-Oct-16 17:00N 39°49' E 018°58'917.9
2017-Oct-16 16:29N 39°57' E 018°51'2218.0
2017-Oct-16 15:18N 40°15' E 018°35'15117.9
2017-Oct-16 06:50N 42°07' E 016°20'8117.5
2017-Oct-16 02:12N 43°08' E 015°08'417.6
2017-Oct-16 01:58N 43°11' E 015°05'1917.6
2017-Oct-16 00:55N 43°26' E 014°49'717.4
2017-Oct-16 00:29N 43°32' E 014°43'817.4
2017-Oct-16 00:00N 43°38' E 014°36'917.4
2017-Oct-15 23:29N 43°45' E 014°28'917.3
2017-Oct-15 22:59N 43°52' E 014°20'917.4
2017-Oct-15 22:26N 43°59' E 014°11'817.5
2017-Oct-15 22:01N 44°05' E 014°05'917.4
2017-Oct-15 21:30N 44°12' E 013°57'917.6
2017-Oct-15 21:00N 44°19' E 013°51'917.6
2017-Oct-15 20:31N 44°27' E 013°44'917.5
2017-Oct-15 20:00N 44°34' E 013°37'917.5
2017-Oct-15 19:30N 44°41' E 013°30'917.6
2017-Oct-15 19:00N 44°48' E 013°23'917.4
2017-Oct-15 18:30N 44°56' E 013°17'917.2
2017-Oct-15 18:00N 45°03' E 013°10'917.0
2017-Oct-15 17:30N 45°11' E 013°05'917.1
2017-Oct-15 17:00N 45°19' E 013°03'815.8
2017-Oct-15 16:30N 45°26' E 013°08'817.1
2017-Oct-15 16:01N 45°32' E 013°17'816.7
2017-Oct-15 15:30N 45°36' E 013°28'714.3
2017-Oct-15 14:59N 45°36' E 013°38'5 5.3
2017-Oct-15 14:00N 45°33' E 013°44'0 0.0
2017-Oct-15 13:30N 45°33' E 013°44'0 0.0
2017-Oct-15 12:57N 45°33' E 013°44'0 0.0
2017-Oct-15 12:27N 45°33' E 013°44'0 0.0
2017-Oct-15 11:48N 45°33' E 013°44'0 0.0
2017-Oct-15 11:27N 45°33' E 013°44'0 0.0
2017-Oct-15 10:57N 45°33' E 013°44'0 0.0
2017-Oct-15 10:30N 45°33' E 013°44'0 0.0
2017-Oct-15 10:00N 45°33' E 013°44'0 0.0
2017-Oct-15 09:24N 45°33' E 013°44'0 0.0
2017-Oct-15 08:57N 45°33' E 013°44'0 0.0
2017-Oct-15 08:27N 45°33' E 013°44'0 0.0
2017-Oct-15 08:00N 45°33' E 013°44'0 0.0
2017-Oct-15 07:30N 45°33' E 013°44'0 0.0
2017-Oct-15 06:54N 45°33' E 013°44'0 0.0
2017-Oct-15 06:24N 45°33' E 013°44'0 0.0
2017-Oct-15 05:57N 45°33' E 013°44'0 0.0
2017-Oct-15 05:27N 45°33' E 013°44'0 0.0
2017-Oct-15 04:54N 45°33' E 013°44'0 0.0
2017-Oct-15 04:30N 45°33' E 013°44'0 0.0
2017-Oct-15 04:00N 45°33' E 013°44'0 0.0
2017-Oct-15 03:27N 45°33' E 013°44'0 0.0
2017-Oct-15 03:00N 45°33' E 013°44'0 0.0
2017-Oct-15 02:27N 45°33' E 013°44'0 0.0
2017-Oct-15 02:00N 45°33' E 013°44'0 0.0
2017-Oct-15 01:30N 45°33' E 013°44'0 0.0
2017-Oct-15 00:54N 45°33' E 013°44'0 0.0
2017-Oct-15 00:30N 45°33' E 013°44'0 0.0
2017-Oct-14 23:57N 45°33' E 013°44'0 0.0
2017-Oct-14 23:24N 45°33' E 013°44'0 0.0
2017-Oct-14 22:57N 45°33' E 013°44'0 0.0
2017-Oct-14 22:24N 45°33' E 013°44'0 0.0
2017-Oct-14 22:00N 45°33' E 013°44'0 0.0
2017-Oct-14 21:30N 45°33' E 013°44'0 0.0
2017-Oct-14 21:00N 45°33' E 013°44'0 0.0
2017-Oct-14 20:24N 45°33' E 013°44'0 0.0
2017-Oct-14 19:42N 45°33' E 013°44'0 0.0
2017-Oct-14 19:24N 45°33' E 013°44'0 0.0
2017-Oct-14 18:57N 45°33' E 013°44'0 0.0
2017-Oct-14 18:27N 45°33' E 013°44'0 0.0
2017-Oct-14 17:51N 45°33' E 013°44'0 0.0
2017-Oct-14 17:18N 45°33' E 013°44'0 0.0
2017-Oct-14 16:57N 45°33' E 013°44'0 0.0
2017-Oct-14 16:30N 45°33' E 013°44'0 0.0
2017-Oct-14 16:00N 45°33' E 013°44'0 0.0
2017-Oct-14 15:27N 45°33' E 013°44'0 0.0
2017-Oct-14 14:57N 45°33' E 013°44'0 0.0
2017-Oct-14 14:27N 45°33' E 013°44'0 0.0
2017-Oct-14 14:00N 45°33' E 013°44'0 0.0
2017-Oct-14 13:30N 45°33' E 013°44'0 0.0
2017-Oct-14 13:00N 45°33' E 013°44'0 0.0
2017-Oct-14 12:30N 45°33' E 013°44'0 0.0
2017-Oct-14 12:00N 45°33' E 013°44'0 0.0
2017-Oct-14 11:27N 45°33' E 013°44'0 0.0
2017-Oct-14 10:57N 45°33' E 013°44'0 0.0
2017-Oct-14 10:27N 45°33' E 013°44'0 0.0
2017-Oct-14 10:00N 45°33' E 013°44'0 0.0
2017-Oct-14 09:21N 45°33' E 013°44'0 0.0
2017-Oct-14 09:00N 45°33' E 013°44'0 0.0
2017-Oct-14 08:30N 45°33' E 013°44'0 0.0
2017-Oct-14 08:00N 45°33' E 013°44'0 0.0
2017-Oct-14 07:30N 45°33' E 013°44'0 0.0
2017-Oct-14 07:00N 45°33' E 013°44'0 0.0
2017-Oct-14 06:30N 45°33' E 013°44'0 0.0
2017-Oct-14 06:00N 45°33' E 013°44'0 0.0
2017-Oct-14 05:27N 45°33' E 013°44'0 0.0
2017-Oct-14 05:00N 45°33' E 013°44'0 0.0
2017-Oct-14 04:30N 45°33' E 013°44'0 0.0
2017-Oct-14 04:00N 45°33' E 013°44'0 0.0
2017-Oct-14 03:30N 45°33' E 013°44'0 0.0
2017-Oct-14 02:57N 45°33' E 013°44'0 0.0
2017-Oct-14 02:21N 45°33' E 013°44'0 0.0
2017-Oct-14 01:57N 45°33' E 013°44'0 0.0
2017-Oct-14 01:24N 45°33' E 013°44'0 0.0
2017-Oct-14 00:45N 45°33' E 013°44'0 0.0
2017-Oct-14 00:30N 45°33' E 013°44'0 0.0
2017-Oct-13 23:57N 45°33' E 013°44'0 0.0
2017-Oct-13 23:30N 45°33' E 013°44'0 0.0
2017-Oct-13 22:57N 45°33' E 013°44'0 0.0
2017-Oct-13 22:27N 45°33' E 013°44'0 0.0
2017-Oct-13 22:00N 45°33' E 013°44'0 0.0
2017-Oct-13 21:30N 45°33' E 013°44'0 0.0
2017-Oct-13 21:00N 45°33' E 013°44'0 0.0
2017-Oct-13 20:30N 45°33' E 013°44'0 0.0
2017-Oct-13 19:57N 45°33' E 013°44'0 0.0
2017-Oct-13 19:30N 45°33' E 013°44'0 0.0
2017-Oct-13 19:00N 45°33' E 013°44'0 0.0
2017-Oct-13 18:27N 45°33' E 013°44'0 0.0
2017-Oct-13 18:00N 45°33' E 013°44'0 0.0
2017-Oct-13 17:27N 45°33' E 013°44'0 0.0
2017-Oct-13 16:57N 45°33' E 013°44'0 0.0
2017-Oct-13 16:18N 45°33' E 013°44'0 0.0
2017-Oct-13 16:00N 45°33' E 013°44'0 0.0
2017-Oct-13 15:30N 45°33' E 013°44'0 0.0
2017-Oct-13 15:00N 45°33' E 013°44'0 0.0
2017-Oct-13 14:30N 45°33' E 013°44'0 0.0
2017-Oct-13 14:00N 45°33' E 013°44'0 0.0
2017-Oct-13 13:30N 45°33' E 013°44'0 0.0
2017-Oct-13 13:00N 45°33' E 013°44'0 0.0
2017-Oct-13 12:30N 45°33' E 013°44'0 0.0
2017-Oct-13 11:57N 45°33' E 013°44'0 0.0
2017-Oct-13 11:30N 45°33' E 013°44'0 0.0
2017-Oct-13 11:00N 45°33' E 013°44'0 0.0
2017-Oct-13 10:30N 45°33' E 013°44'0 0.0
2017-Oct-13 10:00N 45°33' E 013°44'0 0.0
2017-Oct-13 09:30N 45°33' E 013°44'0 0.0
2017-Oct-13 09:00N 45°33' E 013°44'0 0.0
2017-Oct-13 08:30N 45°33' E 013°44'0 0.0
2017-Oct-13 07:54N 45°33' E 013°44'0 0.0
2017-Oct-13 07:27N 45°33' E 013°44'0 0.0
2017-Oct-13 06:57N 45°33' E 013°44'0 0.0
2017-Oct-13 06:30N 45°33' E 013°44'0 0.0
2017-Oct-13 05:54N 45°33' E 013°44'0 0.0
2017-Oct-13 05:27N 45°33' E 013°44'0 0.0
2017-Oct-13 05:00N 45°33' E 013°44'0 0.3
2017-Oct-13 04:31N 45°33' E 013°44'2 4.5
2017-Oct-13 04:00N 45°34' E 013°41'611.6
2017-Oct-13 03:30N 45°35' E 013°33'713.8
2017-Oct-13 03:01N 45°32' E 013°24'713.9
2017-Oct-13 02:30N 45°29' E 013°14'713.8
2017-Oct-13 02:00N 45°27' E 013°05'713.7
2017-Oct-13 01:30N 45°24' E 012°56'713.7
2017-Oct-13 01:00N 45°21' E 012°47'713.2
2017-Oct-13 00:30N 45°18' E 012°39'613.0
2017-Oct-13 00:00N 45°14' E 012°32'612.8
2017-Oct-12 23:30N 45°18' E 012°24'510.3
2017-Oct-12 23:00N 45°20' E 012°18'4 7.8
2017-Oct-12 22:30N 45°24' E 012°16'1 2.8
2017-Oct-12 21:59N 45°26' E 012°15'  

Dump ship's entire track history